CST,Max TemperatureF,Mean TemperatureF,Min TemperatureF,Max Dew PointF,MeanDew PointF,Min DewpointF,Max Humidity, Mean Humidity, Min Humidity, Max Sea Level PressureIn, Mean Sea Level PressureIn, Min Sea Level PressureIn, Max VisibilityMiles, Mean VisibilityMiles, Min VisibilityMiles, Max Wind SpeedMPH, Mean Wind SpeedMPH, Max Gust SpeedMPH,PrecipitationIn, CloudCover, Events, WindDirDegrees
2013-11-1,60,51,42,41,38,37,82,61,44,29.98,29.81,29.66,10,10,2,16,8,22,0.00,2,,277
2013-11-2,57,50,42,37,35,30,79,63,37,30.20,30.13,29.99,10,10,10,12,7,20,0.00,1,,311
2013-11-3,61,50,39,38,35,32,83,56,38,30.18,30.07,29.93,10,10,10,20,7,30,0.00,0,,172
2013-11-4,60,55,50,50,45,39,82,67,55,30.10,29.99,29.91,10,10,2,18,10,26,0.07,7,Rain,187
2013-11-5,62,58,48,59,54,44,94,88,78,30.10,29.99,29.85,10,5,2,17,8,26,0.29,8,Rain,177
2013-11-6,46,42,37,43,35,32,93,77,59,30.36,30.16,29.94,10,9,2,16,10,24,0.13,6,Rain,298
2013-11-7,55,44,33,35,30,25,89,64,30,30.41,30.37,30.34,10,10,10,13,4,21,0.00,0,,266
2013-11-8,66,50,34,35,32,24,82,49,26,30.35,30.09,29.89,10,10,10,24,8,38,0.00,0,,191
2013-11-9,66,55,43,39,35,31,80,53,26,30.32,30.14,29.97,10,10,10,17,7,25,0.00,0,,247
2013-11-10,59,49,39,36,32,27,76,52,31,30.44,30.34,30.22,10,10,10,9,4,,0.00,2,,83
2013-11-11,62,46,28,49,37,16,87,67,51,30.67,30.29,30.17,10,8,2,20,9,29,0.00,7,Rain,332
2013-11-12,36,28,19,17,13,9,71,56,35,30.92,30.80,30.71,10,10,8,15,8,21,0.00,0,,354
2013-11-13,50,36,23,21,15,12,66,43,22,30.70,30.45,30.19,10,10,8,16,8,25,0.00,0,,200
2013-11-14,57,48,39,28,24,22,53,42,29,30.17,30.04,29.96,10,10,10,21,14,28,0.00,1,,205
2013-11-15,59,51,43,45,37,27,77,58,43,29.97,29.87,29.75,10,10,8,17,10,23,0.00,3,,187
2013-11-16,71,62,53,58,54,45,82,70,57,29.73,29.52,29.40,10,9,7,28,17,41,0.00,6,,194
2013-11-17,69,58,46,59,38,19,73,47,17,30.07,29.64,29.32,10,10,10,26,17,39,0.00,0,,259
2013-11-18,57,48,39,34,29,22,79,53,26,30.30,30.23,30.09,10,10,10,8,4,,0.00,0,,269
2013-11-19,61,49,37,31,25,21,73,42,21,30.26,30.14,30.00,10,10,10,14,6,24,0.00,2,,149
2013-11-20,53,48,42,40,32,16,77,60,24,29.99,29.95,29.88,10,9,2,16,9,28,0.12,8,Rain-Thunderstorm,132
2013-11-21,48,39,30,43,35,24,89,83,77,30.46,30.20,29.98,10,6,2,15,8,24,0.04,8,Rain-Snow,360
2013-11-22,30,28,25,25,22,18,86,76,71,30.66,30.58,30.44,10,10,10,15,11,25,0.00,5,,350
2013-11-23,28,22,15,18,10,4,75,57,37,30.82,30.77,30.65,10,10,10,17,8,23,0.00,0,,4
2013-11-24,30,22,14,12,7,3,67,52,32,30.81,30.63,30.38,10,10,10,10,6,,0.00,1,,146
2013-11-25,39,34,30,22,17,13,72,52,41,30.35,30.24,30.18,10,10,10,8,6,,0.00,5,,216
2013-11-26,39,32,23,24,18,8,82,60,36,30.44,30.29,30.18,10,10,8,17,7,29,0.00,2,,343
2013-11-27,33,26,18,12,10,7,68,51,34,30.48,30.36,30.20,10,10,10,13,5,17,0.00,0,,247
2013-11-28,42,35,27,21,17,12,63,52,41,30.52,30.35,30.18,10,10,10,10,7,17,0.00,0,,326
2013-11-29,52,38,24,28,22,16,72,56,38,30.53,30.41,30.26,10,10,6,9,5,,0.00,0,,125
2013-11-30,55,44,34,35,30,23,89,61,47,30.24,30.15,30.09,10,9,6,12,6,,0.00,0,,200